sensor_id;sensor_type;location;lat;lon;timestamp;P1;durP1;ratioP1;P2;durP2;ratioP2
26042;SDS011;13818;52.156;5.382;2023-04-20T00:01:03;4.70;;;2.35;;
26042;SDS011;13818;52.156;5.382;2023-04-20T00:03:32;5.63;;;2.22;;
26042;SDS011;13818;52.156;5.382;2023-04-20T00:05:59;4.53;;;2.30;;
26042;SDS011;13818;52.156;5.382;2023-04-20T00:08:26;4.95;;;2.40;;
26042;SDS011;13818;52.156;5.382;2023-04-20T00:10:53;7.13;;;2.38;;
26042;SDS011;13818;52.156;5.382;2023-04-20T00:13:19;6.18;;;2.55;;
26042;SDS011;13818;52.156;5.382;2023-04-20T00:15:46;6.55;;;2.67;;
26042;SDS011;13818;52.156;5.382;2023-04-20T00:18:12;7.07;;;2.70;;
26042;SDS011;13818;52.156;5.382;2023-04-20T00:20:40;8.02;;;2.83;;
26042;SDS011;13818;52.156;5.382;2023-04-20T00:23:07;4.35;;;2.17;;
26042;SDS011;13818;52.156;5.382;2023-04-20T00:25:33;6.05;;;2.05;;
26042;SDS011;13818;52.156;5.382;2023-04-20T00:28:00;4.80;;;2.10;;
26042;SDS011;13818;52.156;5.382;2023-04-20T00:30:26;5.22;;;2.20;;
26042;SDS011;13818;52.156;5.382;2023-04-20T00:32:53;4.75;;;1.80;;
26042;SDS011;13818;52.156;5.382;2023-04-20T00:35:19;5.90;;;1.90;;
26042;SDS011;13818;52.156;5.382;2023-04-20T00:37:47;9.40;;;1.83;;
26042;SDS011;13818;52.156;5.382;2023-04-20T00:40:13;4.43;;;1.85;;
26042;SDS011;13818;52.156;5.382;2023-04-20T00:42:40;3.20;;;2.05;;
26042;SDS011;13818;52.156;5.382;2023-04-20T00:45:07;3.38;;;1.77;;
26042;SDS011;13818;52.156;5.382;2023-04-20T00:47:34;4.38;;;1.63;;
26042;SDS011;13818;52.156;5.382;2023-04-20T00:50:01;3.97;;;1.70;;
26042;SDS011;13818;52.156;5.382;2023-04-20T00:52:28;5.47;;;1.90;;
26042;SDS011;13818;52.156;5.382;2023-04-20T00:54:56;4.20;;;1.80;;
26042;SDS011;13818;52.156;5.382;2023-04-20T00:57:22;4.85;;;2.15;;
26042;SDS011;13818;52.156;5.382;2023-04-20T00:59:49;4.47;;;2.20;;
26042;SDS011;13818;52.156;5.382;2023-04-20T01:02:16;5.82;;;1.92;;
26042;SDS011;13818;52.156;5.382;2023-04-20T01:04:43;6.03;;;2.00;;
26042;SDS011;13818;52.156;5.382;2023-04-20T01:07:10;5.30;;;1.77;;
26042;SDS011;13818;52.156;5.382;2023-04-20T01:09:37;5.80;;;1.90;;
26042;SDS011;13818;52.156;5.382;2023-04-20T01:12:06;3.55;;;1.73;;
26042;SDS011;13818;52.156;5.382;2023-04-20T01:14:35;8.18;;;2.15;;
26042;SDS011;13818;52.156;5.382;2023-04-20T01:17:01;4.47;;;1.98;;
26042;SDS011;13818;52.156;5.382;2023-04-20T01:19:30;12.18;;;2.20;;
26042;SDS011;13818;52.156;5.382;2023-04-20T01:21:57;4.95;;;2.10;;
26042;SDS011;13818;52.156;5.382;2023-04-20T01:24:25;5.18;;;1.92;;
26042;SDS011;13818;52.156;5.382;2023-04-20T01:26:52;5.88;;;2.28;;
26042;SDS011;13818;52.156;5.382;2023-04-20T01:29:18;9.50;;;2.30;;
26042;SDS011;13818;52.156;5.382;2023-04-20T01:31:45;5.93;;;2.53;;
26042;SDS011;13818;52.156;5.382;2023-04-20T01:34:11;5.80;;;1.70;;
26042;SDS011;13818;52.156;5.382;2023-04-20T01:36:39;6.45;;;2.33;;
26042;SDS011;13818;52.156;5.382;2023-04-20T01:39:05;4.93;;;2.50;;
26042;SDS011;13818;52.156;5.382;2023-04-20T01:41:34;5.25;;;2.65;;
26042;SDS011;13818;52.156;5.382;2023-04-20T01:44:00;6.70;;;2.65;;
26042;SDS011;13818;52.156;5.382;2023-04-20T01:46:27;4.28;;;2.08;;
26042;SDS011;13818;52.156;5.382;2023-04-20T01:48:53;7.00;;;2.65;;
26042;SDS011;13818;52.156;5.382;2023-04-20T01:51:20;5.32;;;2.05;;
26042;SDS011;13818;52.156;5.382;2023-04-20T01:53:46;6.57;;;2.30;;
26042;SDS011;13818;52.156;5.382;2023-04-20T01:56:13;6.38;;;2.15;;
26042;SDS011;13818;52.156;5.382;2023-04-20T01:58:42;5.00;;;2.40;;
26042;SDS011;13818;52.156;5.382;2023-04-20T02:01:08;6.28;;;2.25;;
26042;SDS011;13818;52.156;5.382;2023-04-20T02:03:35;6.00;;;2.50;;
26042;SDS011;13818;52.156;5.382;2023-04-20T02:06:01;4.95;;;2.20;;
26042;SDS011;13818;52.156;5.382;2023-04-20T02:08:28;4.15;;;2.10;;
26042;SDS011;13818;52.156;5.382;2023-04-20T02:10:54;4.57;;;2.10;;
26042;SDS011;13818;52.156;5.382;2023-04-20T02:13:20;4.72;;;2.00;;
26042;SDS011;13818;52.156;5.382;2023-04-20T02:15:48;3.92;;;2.00;;
26042;SDS011;13818;52.156;5.382;2023-04-20T02:18:15;3.75;;;2.20;;
26042;SDS011;13818;52.156;5.382;2023-04-20T02:20:42;6.80;;;2.25;;
26042;SDS011;13818;52.156;5.382;2023-04-20T02:23:08;5.47;;;2.45;;
26042;SDS011;13818;52.156;5.382;2023-04-20T02:25:35;8.00;;;2.20;;
26042;SDS011;13818;52.156;5.382;2023-04-20T02:28:02;6.28;;;2.50;;
26042;SDS011;13818;52.156;5.382;2023-04-20T02:30:29;4.28;;;2.15;;
26042;SDS011;13818;52.156;5.382;2023-04-20T02:32:57;5.55;;;2.40;;
26042;SDS011;13818;52.156;5.382;2023-04-20T02:35:30;8.00;;;3.07;;
26042;SDS011;13818;52.156;5.382;2023-04-20T02:37:56;6.25;;;2.10;;
26042;SDS011;13818;52.156;5.382;2023-04-20T02:40:28;6.10;;;2.40;;
26042;SDS011;13818;52.156;5.382;2023-04-20T02:42:55;5.55;;;2.00;;
26042;SDS011;13818;52.156;5.382;2023-04-20T02:45:21;6.72;;;2.30;;
26042;SDS011;13818;52.156;5.382;2023-04-20T02:47:48;7.13;;;2.45;;
26042;SDS011;13818;52.156;5.382;2023-04-20T02:50:16;4.38;;;2.10;;
26042;SDS011;13818;52.156;5.382;2023-04-20T02:52:42;6.35;;;2.17;;
26042;SDS011;13818;52.156;5.382;2023-04-20T02:55:09;5.20;;;2.53;;
26042;SDS011;13818;52.156;5.382;2023-04-20T02:57:35;3.97;;;1.88;;
26042;SDS011;13818;52.156;5.382;2023-04-20T03:00:02;6.15;;;2.05;;
26042;SDS011;13818;52.156;5.382;2023-04-20T03:02:29;4.40;;;2.28;;
26042;SDS011;13818;52.156;5.382;2023-04-20T03:04:56;4.50;;;1.60;;
26042;SDS011;13818;52.156;5.382;2023-04-20T03:07:24;5.18;;;1.98;;
26042;SDS011;13818;52.156;5.382;2023-04-20T03:09:50;4.85;;;1.90;;
26042;SDS011;13818;52.156;5.382;2023-04-20T03:12:17;5.03;;;2.08;;
26042;SDS011;13818;52.156;5.382;2023-04-20T03:14:44;3.72;;;1.98;;
26042;SDS011;13818;52.156;5.382;2023-04-20T03:17:10;4.07;;;2.00;;
26042;SDS011;13818;52.156;5.382;2023-04-20T03:19:37;12.80;;;2.15;;
26042;SDS011;13818;52.156;5.382;2023-04-20T03:22:03;5.00;;;2.00;;
26042;SDS011;13818;52.156;5.382;2023-04-20T03:24:32;5.63;;;1.90;;
26042;SDS011;13818;52.156;5.382;2023-04-20T03:26:59;5.82;;;2.10;;
26042;SDS011;13818;52.156;5.382;2023-04-20T03:29:26;4.25;;;2.08;;
26042;SDS011;13818;52.156;5.382;2023-04-20T03:31:52;5.13;;;2.00;;
26042;SDS011;13818;52.156;5.382;2023-04-20T03:34:19;3.50;;;1.88;;
26042;SDS011;13818;52.156;5.382;2023-04-20T03:36:46;3.83;;;2.00;;
26042;SDS011;13818;52.156;5.382;2023-04-20T03:39:12;6.75;;;2.20;;
26042;SDS011;13818;52.156;5.382;2023-04-20T03:41:40;6.43;;;2.17;;
26042;SDS011;13818;52.156;5.382;2023-04-20T03:44:06;4.95;;;1.98;;
26042;SDS011;13818;52.156;5.382;2023-04-20T03:46:33;7.25;;;2.00;;
26042;SDS011;13818;52.156;5.382;2023-04-20T03:49:00;4.15;;;2.00;;
26042;SDS011;13818;52.156;5.382;2023-04-20T03:51:27;4.15;;;1.95;;
26042;SDS011;13818;52.156;5.382;2023-04-20T03:53:53;6.63;;;1.85;;
26042;SDS011;13818;52.156;5.382;2023-04-20T03:56:20;3.08;;;1.73;;
26042;SDS011;13818;52.156;5.382;2023-04-20T03:58:48;6.57;;;2.83;;
26042;SDS011;13818;52.156;5.382;2023-04-20T04:01:14;5.72;;;1.80;;
26042;SDS011;13818;52.156;5.382;2023-04-20T04:03:41;5.22;;;1.90;;
26042;SDS011;13818;52.156;5.382;2023-04-20T04:06:08;7.82;;;2.08;;
26042;SDS011;13818;52.156;5.382;2023-04-20T04:08:36;6.05;;;1.75;;
26042;SDS011;13818;52.156;5.382;2023-04-20T04:11:02;7.63;;;2.30;;
26042;SDS011;13818;52.156;5.382;2023-04-20T04:13:29;5.68;;;2.13;;
26042;SDS011;13818;52.156;5.382;2023-04-20T04:15:57;4.85;;;1.83;;
26042;SDS011;13818;52.156;5.382;2023-04-20T04:18:24;5.32;;;2.08;;
26042;SDS011;13818;52.156;5.382;2023-04-20T04:20:53;4.72;;;2.10;;
26042;SDS011;13818;52.156;5.382;2023-04-20T04:23:21;5.65;;;1.85;;
26042;SDS011;13818;52.156;5.382;2023-04-20T04:25:47;5.55;;;2.15;;
26042;SDS011;13818;52.156;5.382;2023-04-20T04:28:14;3.88;;;1.92;;
26042;SDS011;13818;52.156;5.382;2023-04-20T04:30:41;5.07;;;2.53;;
26042;SDS011;13818;52.156;5.382;2023-04-20T04:33:10;5.78;;;2.38;;
26042;SDS011;13818;52.156;5.382;2023-04-20T04:35:38;4.38;;;2.22;;
26042;SDS011;13818;52.156;5.382;2023-04-20T04:38:05;5.70;;;2.30;;
26042;SDS011;13818;52.156;5.382;2023-04-20T04:40:32;4.53;;;1.85;;
26042;SDS011;13818;52.156;5.382;2023-04-20T04:42:58;6.70;;;1.67;;
26042;SDS011;13818;52.156;5.382;2023-04-20T04:45:25;3.65;;;1.55;;
26042;SDS011;13818;52.156;5.382;2023-04-20T04:47:52;3.70;;;1.88;;
26042;SDS011;13818;52.156;5.382;2023-04-20T04:50:21;4.18;;;1.70;;
26042;SDS011;13818;52.156;5.382;2023-04-20T04:52:47;5.05;;;1.90;;
26042;SDS011;13818;52.156;5.382;2023-04-20T04:55:14;6.43;;;1.92;;
26042;SDS011;13818;52.156;5.382;2023-04-20T04:57:41;7.03;;;1.92;;
26042;SDS011;13818;52.156;5.382;2023-04-20T05:00:08;6.05;;;1.55;;
26042;SDS011;13818;52.156;5.382;2023-04-20T05:02:36;1.85;;;1.15;;
26042;SDS011;13818;52.156;5.382;2023-04-20T05:05:03;10.52;;;2.53;;
26042;SDS011;13818;52.156;5.382;2023-04-20T05:07:31;5.30;;;1.50;;
26042;SDS011;13818;52.156;5.382;2023-04-20T05:09:58;7.35;;;1.70;;
26042;SDS011;13818;52.156;5.382;2023-04-20T05:12:24;5.93;;;2.58;;
26042;SDS011;13818;52.156;5.382;2023-04-20T05:14:51;3.70;;;1.60;;
26042;SDS011;13818;52.156;5.382;2023-04-20T05:17:18;3.25;;;1.33;;
26042;SDS011;13818;52.156;5.382;2023-04-20T05:19:44;5.63;;;1.92;;
26042;SDS011;13818;52.156;5.382;2023-04-20T05:22:10;6.20;;;1.80;;
26042;SDS011;13818;52.156;5.382;2023-04-20T05:24:38;3.50;;;1.63;;
26042;SDS011;13818;52.156;5.382;2023-04-20T05:27:05;4.15;;;1.58;;
26042;SDS011;13818;52.156;5.382;2023-04-20T05:29:32;5.55;;;1.70;;
26042;SDS011;13818;52.156;5.382;2023-04-20T05:31:58;4.45;;;1.60;;
26042;SDS011;13818;52.156;5.382;2023-04-20T05:34:25;3.47;;;1.52;;
26042;SDS011;13818;52.156;5.382;2023-04-20T05:36:51;7.32;;;1.80;;
26042;SDS011;13818;52.156;5.382;2023-04-20T05:39:18;3.50;;;1.80;;
26042;SDS011;13818;52.156;5.382;2023-04-20T05:41:47;3.65;;;1.20;;
26042;SDS011;13818;52.156;5.382;2023-04-20T05:44:13;6.70;;;2.72;;
26042;SDS011;13818;52.156;5.382;2023-04-20T05:46:40;5.78;;;2.08;;
26042;SDS011;13818;52.156;5.382;2023-04-20T05:49:06;6.93;;;2.10;;
26042;SDS011;13818;52.156;5.382;2023-04-20T05:51:33;4.35;;;1.60;;
26042;SDS011;13818;52.156;5.382;2023-04-20T05:53:59;4.38;;;1.40;;
26042;SDS011;13818;52.156;5.382;2023-04-20T05:56:26;5.15;;;2.00;;
26042;SDS011;13818;52.156;5.382;2023-04-20T05:58:54;7.68;;;2.00;;
26042;SDS011;13818;52.156;5.382;2023-04-20T06:01:21;7.60;;;1.75;;
26042;SDS011;13818;52.156;5.382;2023-04-20T06:03:48;5.65;;;2.00;;
26042;SDS011;13818;52.156;5.382;2023-04-20T06:06:14;5.10;;;1.70;;
26042;SDS011;13818;52.156;5.382;2023-04-20T06:08:41;4.72;;;1.77;;
26042;SDS011;13818;52.156;5.382;2023-04-20T06:11:09;3.72;;;1.50;;
26042;SDS011;13818;52.156;5.382;2023-04-20T06:13:35;4.85;;;1.98;;
26042;SDS011;13818;52.156;5.382;2023-04-20T06:16:03;5.53;;;1.88;;
26042;SDS011;13818;52.156;5.382;2023-04-20T06:18:34;6.57;;;2.08;;
26042;SDS011;13818;52.156;5.382;2023-04-20T06:21:01;3.95;;;1.35;;
26042;SDS011;13818;52.156;5.382;2023-04-20T06:23:28;3.53;;;1.88;;
26042;SDS011;13818;52.156;5.382;2023-04-20T06:25:54;5.85;;;1.88;;
26042;SDS011;13818;52.156;5.382;2023-04-20T06:28:22;8.25;;;2.17;;
26042;SDS011;13818;52.156;5.382;2023-04-20T06:30:48;6.18;;;2.00;;
26042;SDS011;13818;52.156;5.382;2023-04-20T06:33:16;6.50;;;2.10;;
26042;SDS011;13818;52.156;5.382;2023-04-20T06:35:42;5.72;;;2.10;;
26042;SDS011;13818;52.156;5.382;2023-04-20T06:38:09;4.30;;;1.77;;
26042;SDS011;13818;52.156;5.382;2023-04-20T06:40:36;3.67;;;1.30;;
26042;SDS011;13818;52.156;5.382;2023-04-20T06:43:02;5.03;;;2.13;;
26042;SDS011;13818;52.156;5.382;2023-04-20T06:45:29;5.78;;;1.70;;
26042;SDS011;13818;52.156;5.382;2023-04-20T06:47:55;6.63;;;2.85;;
26042;SDS011;13818;52.156;5.382;2023-04-20T06:50:23;6.43;;;2.35;;
26042;SDS011;13818;52.156;5.382;2023-04-20T06:52:50;5.45;;;2.45;;
26042;SDS011;13818;52.156;5.382;2023-04-20T06:55:16;4.63;;;2.45;;
26042;SDS011;13818;52.156;5.382;2023-04-20T06:57:43;5.22;;;2.10;;
26042;SDS011;13818;52.156;5.382;2023-04-20T07:00:10;4.78;;;2.63;;
26042;SDS011;13818;52.156;5.382;2023-04-20T07:02:41;3.25;;;1.73;;
26042;SDS011;13818;52.156;5.382;2023-04-20T07:05:09;3.75;;;1.75;;
26042;SDS011;13818;52.156;5.382;2023-04-20T07:07:37;7.38;;;2.75;;
26042;SDS011;13818;52.156;5.382;2023-04-20T07:10:04;5.78;;;2.30;;
26042;SDS011;13818;52.156;5.382;2023-04-20T07:12:32;3.97;;;1.88;;
26042;SDS011;13818;52.156;5.382;2023-04-20T07:15:00;6.35;;;2.33;;
26042;SDS011;13818;52.156;5.382;2023-04-20T07:17:27;9.07;;;2.67;;
26042;SDS011;13818;52.156;5.382;2023-04-20T07:19:54;6.80;;;2.50;;
26042;SDS011;13818;52.156;5.382;2023-04-20T07:22:22;7.75;;;2.25;;
26042;SDS011;13818;52.156;5.382;2023-04-20T07:24:50;4.80;;;1.88;;
26042;SDS011;13818;52.156;5.382;2023-04-20T07:27:16;6.65;;;2.38;;
26042;SDS011;13818;52.156;5.382;2023-04-20T07:29:43;4.95;;;2.53;;
26042;SDS011;13818;52.156;5.382;2023-04-20T07:32:09;5.35;;;2.25;;
26042;SDS011;13818;52.156;5.382;2023-04-20T07:34:36;5.50;;;2.40;;
26042;SDS011;13818;52.156;5.382;2023-04-20T07:37:02;6.07;;;1.85;;
26042;SDS011;13818;52.156;5.382;2023-04-20T07:39:29;3.17;;;1.58;;
26042;SDS011;13818;52.156;5.382;2023-04-20T07:41:57;4.50;;;2.30;;
26042;SDS011;13818;52.156;5.382;2023-04-20T07:44:23;4.93;;;2.13;;
26042;SDS011;13818;52.156;5.382;2023-04-20T07:46:51;4.43;;;2.13;;
26042;SDS011;13818;52.156;5.382;2023-04-20T07:49:18;7.97;;;2.33;;
26042;SDS011;13818;52.156;5.382;2023-04-20T07:51:45;5.88;;;2.55;;
26042;SDS011;13818;52.156;5.382;2023-04-20T07:54:11;6.20;;;2.13;;
26042;SDS011;13818;52.156;5.382;2023-04-20T07:56:38;6.40;;;2.20;;
26042;SDS011;13818;52.156;5.382;2023-04-20T07:59:06;4.55;;;2.33;;
26042;SDS011;13818;52.156;5.382;2023-04-20T08:01:34;4.78;;;2.38;;
26042;SDS011;13818;52.156;5.382;2023-04-20T08:04:00;5.18;;;2.47;;
26042;SDS011;13818;52.156;5.382;2023-04-20T08:06:27;7.10;;;2.35;;
26042;SDS011;13818;52.156;5.382;2023-04-20T08:08:54;5.78;;;2.55;;
26042;SDS011;13818;52.156;5.382;2023-04-20T08:11:20;4.25;;;2.58;;
26042;SDS011;13818;52.156;5.382;2023-04-20T08:13:48;5.90;;;2.50;;
26042;SDS011;13818;52.156;5.382;2023-04-20T08:16:16;8.02;;;3.03;;
26042;SDS011;13818;52.156;5.382;2023-04-20T08:18:44;6.93;;;2.50;;
26042;SDS011;13818;52.156;5.382;2023-04-20T08:21:10;6.50;;;2.60;;
26042;SDS011;13818;52.156;5.382;2023-04-20T08:23:37;4.50;;;2.38;;
26042;SDS011;13818;52.156;5.382;2023-04-20T08:26:04;7.93;;;3.00;;
26042;SDS011;13818;52.156;5.382;2023-04-20T08:28:31;6.90;;;2.97;;
26042;SDS011;13818;52.156;5.382;2023-04-20T08:30:58;5.15;;;2.63;;
26042;SDS011;13818;52.156;5.382;2023-04-20T08:33:26;8.15;;;3.20;;
26042;SDS011;13818;52.156;5.382;2023-04-20T08:35:52;10.10;;;3.28;;
26042;SDS011;13818;52.156;5.382;2023-04-20T08:38:19;6.18;;;2.17;;
26042;SDS011;13818;52.156;5.382;2023-04-20T08:40:46;4.35;;;2.22;;
26042;SDS011;13818;52.156;5.382;2023-04-20T08:43:13;6.93;;;2.67;;
26042;SDS011;13818;52.156;5.382;2023-04-20T08:45:39;6.13;;;2.90;;
26042;SDS011;13818;52.156;5.382;2023-04-20T08:48:12;7.28;;;2.78;;
26042;SDS011;13818;52.156;5.382;2023-04-20T08:50:41;6.07;;;2.95;;
26042;SDS011;13818;52.156;5.382;2023-04-20T08:53:08;7.70;;;2.60;;
26042;SDS011;13818;52.156;5.382;2023-04-20T08:55:34;8.43;;;3.20;;
26042;SDS011;13818;52.156;5.382;2023-04-20T08:58:01;6.63;;;3.22;;
26042;SDS011;13818;52.156;5.382;2023-04-20T09:00:29;11.27;;;2.78;;
26042;SDS011;13818;52.156;5.382;2023-04-20T09:02:55;6.10;;;3.05;;
26042;SDS011;13818;52.156;5.382;2023-04-20T09:05:23;5.85;;;2.80;;
26042;SDS011;13818;52.156;5.382;2023-04-20T09:07:54;5.43;;;2.78;;
26042;SDS011;13818;52.156;5.382;2023-04-20T09:10:22;7.40;;;3.17;;
26042;SDS011;13818;52.156;5.382;2023-04-20T09:12:50;11.00;;;2.60;;
26042;SDS011;13818;52.156;5.382;2023-04-20T09:15:23;6.10;;;2.83;;
26042;SDS011;13818;52.156;5.382;2023-04-20T09:17:50;9.77;;;3.10;;
26042;SDS011;13818;52.156;5.382;2023-04-20T09:20:25;6.38;;;2.67;;
26042;SDS011;13818;52.156;5.382;2023-04-20T09:22:52;8.00;;;3.35;;
26042;SDS011;13818;52.156;5.382;2023-04-20T09:25:21;7.95;;;2.60;;
26042;SDS011;13818;52.156;5.382;2023-04-20T09:27:54;7.00;;;2.90;;
26042;SDS011;13818;52.156;5.382;2023-04-20T09:30:21;7.05;;;2.67;;
26042;SDS011;13818;52.156;5.382;2023-04-20T09:32:47;8.65;;;2.85;;
26042;SDS011;13818;52.156;5.382;2023-04-20T09:35:21;8.88;;;2.90;;
26042;SDS011;13818;52.156;5.382;2023-04-20T09:37:48;5.43;;;2.70;;
26042;SDS011;13818;52.156;5.382;2023-04-20T09:40:14;8.30;;;3.00;;
26042;SDS011;13818;52.156;5.382;2023-04-20T09:42:42;6.63;;;2.72;;
26042;SDS011;13818;52.156;5.382;2023-04-20T09:45:11;6.75;;;3.80;;
26042;SDS011;13818;52.156;5.382;2023-04-20T09:47:40;7.15;;;3.05;;
26042;SDS011;13818;52.156;5.382;2023-04-20T09:50:09;5.95;;;2.72;;
26042;SDS011;13818;52.156;5.382;2023-04-20T09:52:36;9.98;;;3.85;;
26042;SDS011;13818;52.156;5.382;2023-04-20T09:55:03;8.68;;;2.50;;
26042;SDS011;13818;52.156;5.382;2023-04-20T09:57:32;6.53;;;3.10;;
26042;SDS011;13818;52.156;5.382;2023-04-20T10:00:01;6.80;;;3.05;;
26042;SDS011;13818;52.156;5.382;2023-04-20T10:02:29;9.13;;;3.67;;
26042;SDS011;13818;52.156;5.382;2023-04-20T10:04:56;6.93;;;3.65;;
26042;SDS011;13818;52.156;5.382;2023-04-20T10:07:25;8.82;;;3.85;;
26042;SDS011;13818;52.156;5.382;2023-04-20T10:10:03;7.70;;;3.65;;
26042;SDS011;13818;52.156;5.382;2023-04-20T10:12:31;8.10;;;3.75;;
26042;SDS011;13818;52.156;5.382;2023-04-20T10:17:30;4.78;;;2.80;;
26042;SDS011;13818;52.156;5.382;2023-04-20T10:19:58;10.38;;;3.38;;
26042;SDS011;13818;52.156;5.382;2023-04-20T10:22:25;8.38;;;3.50;;
26042;SDS011;13818;52.156;5.382;2023-04-20T10:24:54;6.18;;;3.60;;
26042;SDS011;13818;52.156;5.382;2023-04-20T10:27:21;5.95;;;3.63;;
26042;SDS011;13818;52.156;5.382;2023-04-20T10:29:48;7.28;;;4.03;;
26042;SDS011;13818;52.156;5.382;2023-04-20T10:32:22;8.80;;;3.47;;
26042;SDS011;13818;52.156;5.382;2023-04-20T10:34:59;9.77;;;3.70;;
26042;SDS011;13818;52.156;5.382;2023-04-20T10:37:27;11.13;;;3.63;;
26042;SDS011;13818;52.156;5.382;2023-04-20T10:39:53;6.55;;;3.38;;
26042;SDS011;13818;52.156;5.382;2023-04-20T10:42:20;6.35;;;3.33;;
26042;SDS011;13818;52.156;5.382;2023-04-20T10:44:47;10.60;;;3.65;;
26042;SDS011;13818;52.156;5.382;2023-04-20T10:47:14;8.60;;;3.53;;
26042;SDS011;13818;52.156;5.382;2023-04-20T10:49:41;7.10;;;4.05;;
26042;SDS011;13818;52.156;5.382;2023-04-20T10:52:08;9.13;;;4.00;;
26042;SDS011;13818;52.156;5.382;2023-04-20T10:54:35;7.10;;;4.10;;
26042;SDS011;13818;52.156;5.382;2023-04-20T10:57:03;6.32;;;3.10;;
26042;SDS011;13818;52.156;5.382;2023-04-20T10:59:31;9.93;;;3.50;;
26042;SDS011;13818;52.156;5.382;2023-04-20T11:01:59;9.10;;;3.35;;
26042;SDS011;13818;52.156;5.382;2023-04-20T11:04:29;6.78;;;3.08;;
26042;SDS011;13818;52.156;5.382;2023-04-20T11:07:04;7.78;;;3.83;;
26042;SDS011;13818;52.156;5.382;2023-04-20T11:09:33;7.63;;;3.00;;
26042;SDS011;13818;52.156;5.382;2023-04-20T11:12:03;6.75;;;3.35;;
26042;SDS011;13818;52.156;5.382;2023-04-20T11:14:30;5.07;;;2.90;;
26042;SDS011;13818;52.156;5.382;2023-04-20T11:16:58;8.32;;;3.60;;
26042;SDS011;13818;52.156;5.382;2023-04-20T11:19:25;9.75;;;3.63;;
26042;SDS011;13818;52.156;5.382;2023-04-20T11:21:53;6.10;;;3.42;;
26042;SDS011;13818;52.156;5.382;2023-04-20T11:24:22;8.73;;;3.40;;
26042;SDS011;13818;52.156;5.382;2023-04-20T11:29:27;7.65;;;3.10;;
26042;SDS011;13818;52.156;5.382;2023-04-20T11:31:55;6.63;;;3.53;;
26042;SDS011;13818;52.156;5.382;2023-04-20T11:34:22;5.88;;;2.92;;
26042;SDS011;13818;52.156;5.382;2023-04-20T11:36:48;5.13;;;2.85;;
26042;SDS011;13818;52.156;5.382;2023-04-20T11:39:22;4.47;;;2.35;;
26042;SDS011;13818;52.156;5.382;2023-04-20T11:41:49;6.07;;;2.40;;
26042;SDS011;13818;52.156;5.382;2023-04-20T11:44:16;6.65;;;2.28;;
26042;SDS011;13818;52.156;5.382;2023-04-20T11:46:45;6.00;;;2.83;;
26042;SDS011;13818;52.156;5.382;2023-04-20T11:49:13;7.78;;;3.00;;
26042;SDS011;13818;52.156;5.382;2023-04-20T11:51:40;5.55;;;2.65;;
26042;SDS011;13818;52.156;5.382;2023-04-20T11:54:07;7.38;;;2.92;;
26042;SDS011;13818;52.156;5.382;2023-04-20T11:56:35;7.25;;;2.88;;
26042;SDS011;13818;52.156;5.382;2023-04-20T11:59:02;4.30;;;2.80;;
26042;SDS011;13818;52.156;5.382;2023-04-20T12:01:29;4.88;;;2.50;;
26042;SDS011;13818;52.156;5.382;2023-04-20T12:03:55;5.60;;;3.13;;
26042;SDS011;13818;52.156;5.382;2023-04-20T12:06:22;6.53;;;3.00;;
26042;SDS011;13818;52.156;5.382;2023-04-20T12:08:48;6.80;;;2.67;;
26042;SDS011;13818;52.156;5.382;2023-04-20T12:11:15;7.43;;;2.50;;
26042;SDS011;13818;52.156;5.382;2023-04-20T12:13:43;7.72;;;2.67;;
26042;SDS011;13818;52.156;5.382;2023-04-20T12:16:09;8.57;;;2.88;;
26042;SDS011;13818;52.156;5.382;2023-04-20T12:18:36;5.45;;;3.13;;
26042;SDS011;13818;52.156;5.382;2023-04-20T12:21:03;7.28;;;3.00;;
26042;SDS011;13818;52.156;5.382;2023-04-20T12:23:29;6.00;;;3.13;;
26042;SDS011;13818;52.156;5.382;2023-04-20T12:25:57;12.10;;;2.70;;
26042;SDS011;13818;52.156;5.382;2023-04-20T12:28:23;9.43;;;3.33;;
26042;SDS011;13818;52.156;5.382;2023-04-20T12:30:51;6.60;;;2.97;;
26042;SDS011;13818;52.156;5.382;2023-04-20T12:33:17;5.75;;;2.70;;
26042;SDS011;13818;52.156;5.382;2023-04-20T12:35:44;8.70;;;3.20;;
26042;SDS011;13818;52.156;5.382;2023-04-20T12:38:10;9.80;;;3.33;;
26042;SDS011;13818;52.156;5.382;2023-04-20T12:40:37;6.43;;;3.08;;
26042;SDS011;13818;52.156;5.382;2023-04-20T12:43:03;6.95;;;2.83;;
26042;SDS011;13818;52.156;5.382;2023-04-20T12:45:30;7.68;;;2.85;;
26042;SDS011;13818;52.156;5.382;2023-04-20T12:47:58;8.07;;;3.05;;
26042;SDS011;13818;52.156;5.382;2023-04-20T12:50:25;7.53;;;3.08;;
26042;SDS011;13818;52.156;5.382;2023-04-20T12:52:52;6.82;;;3.42;;
26042;SDS011;13818;52.156;5.382;2023-04-20T12:55:21;4.57;;;2.20;;
26042;SDS011;13818;52.156;5.382;2023-04-20T12:57:48;6.20;;;3.25;;
26042;SDS011;13818;52.156;5.382;2023-04-20T13:00:14;5.75;;;3.20;;
26042;SDS011;13818;52.156;5.382;2023-04-20T13:02:41;8.75;;;2.90;;
26042;SDS011;13818;52.156;5.382;2023-04-20T13:05:09;8.35;;;2.70;;
26042;SDS011;13818;52.156;5.382;2023-04-20T13:07:36;8.63;;;2.85;;
26042;SDS011;13818;52.156;5.382;2023-04-20T13:10:03;5.43;;;2.85;;
26042;SDS011;13818;52.156;5.382;2023-04-20T13:12:31;5.57;;;2.30;;
26042;SDS011;13818;52.156;5.382;2023-04-20T13:14:57;7.20;;;3.05;;
26042;SDS011;13818;52.156;5.382;2023-04-20T13:17:24;9.02;;;3.20;;
26042;SDS011;13818;52.156;5.382;2023-04-20T13:19:50;8.32;;;3.30;;
26042;SDS011;13818;52.156;5.382;2023-04-20T13:22:18;6.65;;;3.17;;
26042;SDS011;13818;52.156;5.382;2023-04-20T13:24:45;6.97;;;2.65;;
26042;SDS011;13818;52.156;5.382;2023-04-20T13:27:12;5.35;;;3.05;;
26042;SDS011;13818;52.156;5.382;2023-04-20T13:29:39;7.68;;;3.45;;
26042;SDS011;13818;52.156;5.382;2023-04-20T13:32:05;6.90;;;3.03;;
26042;SDS011;13818;52.156;5.382;2023-04-20T13:34:32;7.72;;;3.50;;
26042;SDS011;13818;52.156;5.382;2023-04-20T13:36:58;9.45;;;3.17;;
26042;SDS011;13818;52.156;5.382;2023-04-20T13:39:26;6.95;;;2.90;;
26042;SDS011;13818;52.156;5.382;2023-04-20T13:41:53;9.30;;;3.60;;
26042;SDS011;13818;52.156;5.382;2023-04-20T13:44:20;6.88;;;3.00;;
26042;SDS011;13818;52.156;5.382;2023-04-20T13:46:46;10.40;;;3.65;;
26042;SDS011;13818;52.156;5.382;2023-04-20T13:49:13;5.55;;;2.28;;
26042;SDS011;13818;52.156;5.382;2023-04-20T13:51:40;7.25;;;3.33;;
26042;SDS011;13818;52.156;5.382;2023-04-20T13:54:07;6.95;;;3.55;;
26042;SDS011;13818;52.156;5.382;2023-04-20T13:56:35;6.28;;;3.15;;
26042;SDS011;13818;52.156;5.382;2023-04-20T13:59:02;7.20;;;2.85;;
26042;SDS011;13818;52.156;5.382;2023-04-20T14:01:28;7.95;;;3.10;;
26042;SDS011;13818;52.156;5.382;2023-04-20T14:03:55;6.10;;;2.50;;
26042;SDS011;13818;52.156;5.382;2023-04-20T14:06:22;5.85;;;2.47;;
26042;SDS011;13818;52.156;5.382;2023-04-20T14:08:48;7.07;;;3.38;;
26042;SDS011;13818;52.156;5.382;2023-04-20T14:11:17;9.10;;;3.85;;
26042;SDS011;13818;52.156;5.382;2023-04-20T14:13:51;6.88;;;3.30;;
26042;SDS011;13818;52.156;5.382;2023-04-20T14:16:18;5.57;;;2.95;;
26042;SDS011;13818;52.156;5.382;2023-04-20T14:18:44;7.32;;;3.25;;
26042;SDS011;13818;52.156;5.382;2023-04-20T14:21:11;10.65;;;3.92;;
26042;SDS011;13818;52.156;5.382;2023-04-20T14:23:37;6.80;;;3.42;;
26042;SDS011;13818;52.156;5.382;2023-04-20T14:26:04;7.70;;;3.55;;
26042;SDS011;13818;52.156;5.382;2023-04-20T14:28:31;8.63;;;3.83;;
26042;SDS011;13818;52.156;5.382;2023-04-20T14:30:59;11.57;;;3.88;;
26042;SDS011;13818;52.156;5.382;2023-04-20T14:33:27;7.63;;;3.45;;
26042;SDS011;13818;52.156;5.382;2023-04-20T14:35:54;6.93;;;3.58;;
26042;SDS011;13818;52.156;5.382;2023-04-20T14:38:20;6.38;;;4.35;;
26042;SDS011;13818;52.156;5.382;2023-04-20T14:40:48;7.68;;;4.28;;
26042;SDS011;13818;52.156;5.382;2023-04-20T14:43:15;11.10;;;3.97;;
26042;SDS011;13818;52.156;5.382;2023-04-20T14:45:41;7.57;;;3.65;;
26042;SDS011;13818;52.156;5.382;2023-04-20T14:48:11;8.65;;;4.13;;
26042;SDS011;13818;52.156;5.382;2023-04-20T14:50:37;8.02;;;4.60;;
26042;SDS011;13818;52.156;5.382;2023-04-20T14:53:04;10.70;;;5.22;;